CheckWX is a tool to help pilots better visualize weather data.  It is not intended as a substitute for an official pre-flight weather briefing.

21:01:13 UTC

KCHS METAR
Charleston AFB / Intl Airport
Charleston, South Carolina, USA
Current

5 mins ago

KCHS 182056Z 26005KT 10SM FEW030 BKN120 BKN200 19/10 A3011 RMK AO2 SLP195 T01890100 53007
Observed
Feb-18 @ 20:56 UTC
Wind
  • 260° at 5 KTS
Visibility
10 SM
Flight Rules
VFR
Cloud Levels
  • Few at 3,000' AGL
  • Broken at 12,000' AGL
  • Broken at 20,000' AGL
Temperature
19°C / 66°F
Dewpoint
10°C / 50°F
Humidity
56%
Altimeter
30.11" Hg
Pressure
1019.5 hPa
Previous

1 hour ago

KCHS 181956Z 31010KT 10SM FEW035 BKN120 BKN200 20/10 A3009 RMK AO2 SLP188 T02000100
Observed
Feb-18 @ 19:56 UTC
Wind
  • 310° at 10 KTS
Visibility
10 SM
Flight Rules
VFR
Cloud Levels
  • Few at 3,500' AGL
  • Broken at 12,000' AGL
  • Broken at 20,000' AGL
Temperature
20°C / 68°F
Dewpoint
10°C / 50°F
Humidity
53%
Altimeter
30.09" Hg
Pressure
1018.8 hPa
Previous

2 hours ago

KCHS 181856Z 31008KT 10SM FEW035 BKN080 BKN200 18/12 A3009 RMK AO2 SLP190 T01830117
Observed
Feb-18 @ 18:56 UTC
Wind
  • 310° at 8 KTS
Visibility
10 SM
Flight Rules
VFR
Cloud Levels
  • Few at 3,500' AGL
  • Broken at 8,000' AGL
  • Broken at 20,000' AGL
Temperature
18°C / 64°F
Dewpoint
12°C / 54°F
Humidity
68%
Altimeter
30.09" Hg
Pressure
1019 hPa